Time;durP1;ratioP1;P1;durP2;ratioP2;P2;SDS_P1;SDS_P2;PMS_P1;PMS_P2;Temp;Humidity;BMP_temperature;BMP_pressure;BME280_temperature;BME280_humidity;BME280_pressure;Samples;Min_cycle;Max_cycle;Signal;HPM_P1;HPM_P2
2022/01/13 00:02:06;;;;;;;;;;;;;;;1.90;82.06;103213.44;5042990;28;20560;-63
2022/01/13 00:05:09;;;;;;;23.63;16.52;;;;;;;1.70;82.33;103201.72;5048079;28;19915;-63
2022/01/13 00:08:12;;;;;;;22.17;15.82;;;;;;;2.00;81.71;103187.03;5047943;28;20118;-62
2022/01/13 00:11:16;;;;;;;25.05;17.48;;;;;;;2.19;80.94;103190.09;5047802;28;20575;-62
2022/01/13 00:17:33;;;;;;;26.58;16.77;;;;;;;2.10;80.79;103199.31;5038582;28;19970;-62
2022/01/13 00:23:59;;;;;;;18.98;14.07;;;;;;;1.73;81.20;103210.41;5028382;28;20091;-62
2022/01/13 00:27:09;;;;;;;22.60;13.90;;;;;;;1.78;81.56;103208.81;5027672;28;20122;-62
2022/01/13 00:30:16;;;;;;;20.73;13.45;;;;;;;1.94;80.39;103215.25;5039034;28;20099;-62
2022/01/13 00:33:24;;;;;;;18.73;13.82;;;;;;;2.09;79.78;103207.91;5048357;28;20094;-62
2022/01/13 00:36:35;;;;;;;16.23;12.25;;;;;;;1.88;80.45;103214.22;5043239;28;20452;-61
2022/01/13 00:39:39;;;;;;;18.27;13.15;;;;;;;2.06;79.84;103201.81;5033631;28;20044;-61
2022/01/13 00:42:42;;;;;;;;;;;;;;;2.10;79.55;103207.06;5048004;28;20352;-61
2022/01/13 00:45:47;;;;;;;23.70;14.30;;;;;;;2.19;79.35;103208.16;5046524;28;19922;-62
2022/01/13 00:48:52;;;;;;;19.33;13.80;;;;;;;2.15;79.52;103204.63;5047181;28;20083;-62
2022/01/13 00:51:56;;;;;;;20.90;15.27;;;;;;;2.20;79.31;103203.03;5023493;28;20047;-63
2022/01/13 00:55:05;;;;;;;18.52;13.35;;;;;;;2.13;79.46;103205.41;5047678;28;20186;-62
2022/01/13 00:58:08;;;;;;;18.75;14.25;;;;;;;2.14;79.47;103195.16;5045398;28;20095;-62
2022/01/13 01:01:12;;;;;;;21.30;15.57;;;;;;;2.18;79.96;103198.66;5048048;28;20051;-62
2022/01/13 01:04:16;;;;;;;22.70;15.60;;;;;;;2.27;79.63;103206.66;5047400;28;20056;-62
2022/01/13 01:07:19;;;;;;;18.52;13.73;;;;;;;2.26;79.16;103204.88;5037698;28;20044;-61
2022/01/13 01:10:23;;;;;;;;;;;;;;;2.08;80.02;103207.88;5027851;28;20077;-61
2022/01/13 01:13:30;;;;;;;20.10;13.32;;;;;;;2.09;79.92;103215.66;5037751;28;20002;-62
2022/01/13 01:16:36;;;;;;;17.80;12.70;;;;;;;2.19;79.99;103210.72;5046668;28;20600;-63
2022/01/13 01:19:40;;;;;;;19.00;12.95;;;;;;;2.26;79.74;103204.88;5034539;28;20055;-62
2022/01/13 01:22:58;;;;;;;17.40;12.02;;;;;;;2.29;79.28;103208.41;5047605;28;20464;-62
2022/01/13 01:26:08;;;;;;;19.40;13.63;;;;;;;2.36;79.45;103208.56;5027176;28;20409;-62
2022/01/13 01:29:22;;;;;;;22.08;14.73;;;;;;;2.46;79.37;103211.44;5046410;28;20400;-62
2022/01/13 01:32:26;;;;;;;22.13;15.48;;;;;;;2.43;79.36;103211.34;5046164;28;20059;-62
2022/01/13 01:35:29;;;;;;;20.08;14.43;;;;;;;2.39;79.61;103224.13;5045887;28;20059;-63
2022/01/13 01:38:33;;;;;;;14.52;10.95;;;;;;;2.04;79.87;103235.34;5030795;28;20071;-62
2022/01/13 01:41:45;;;;;;;14.07;9.57;;;;;;;1.97;80.45;103228.22;5038292;28;20052;-62
2022/01/13 01:44:53;;;;;;;14.05;10.77;;;;;;;1.94;80.74;103220.41;5050726;28;20048;-62
2022/01/13 01:47:56;;;;;;;19.15;13.35;;;;;;;1.99;81.38;103217.97;5050904;28;20133;-62
2022/01/13 01:50:59;;;;;;;15.77;12.50;;;;;;;2.15;81.13;103221.81;5051595;28;20048;-62
2022/01/13 01:54:03;;;;;;;;;;;;;;;2.28;81.06;103222.16;5051770;28;20055;-62
2022/01/13 01:57:07;;;;;;;18.23;13.30;;;;;;;2.25;80.65;103223.81;5050036;28;20449;-62
2022/01/13 02:00:14;;;;;;;17.10;11.70;;;;;;;2.29;79.74;103216.16;5049579;28;20044;-63
2022/01/13 02:03:17;;;;;;;19.77;13.05;;;;;;;2.29;79.88;103225.63;5050333;28;20125;-62
2022/01/13 02:06:20;;;;;;;;;;;;;;;2.26;80.26;103222.97;5048797;28;20072;-62
2022/01/13 02:09:24;;;;;;;16.67;12.20;;;;;;;2.22;80.10;103221.13;5049611;28;19922;-62
2022/01/13 02:12:35;;;;;;;12.77;10.07;;;;;;;2.10;80.38;103224.28;5051218;28;20554;-62
2022/01/13 02:15:59;;;;;;;13.77;9.70;;;;;;;2.21;79.77;103212.53;5049899;28;20076;-62
2022/01/13 02:19:03;;;;;;;15.95;10.93;;;;;;;2.33;79.33;103214.56;5037368;28;20048;-62
2022/01/13 02:22:07;;;;;;;14.73;11.20;;;;;;;2.36;79.37;103216.31;5049694;28;20095;-62
2022/01/13 02:25:16;;;;;;;16.27;12.73;;;;;;;1.61;81.78;103215.22;5049283;28;20044;-62
2022/01/13 02:28:19;;;;;;;17.60;13.65;;;;;;;1.50;82.47;103211.44;5050007;28;20055;-62
2022/01/13 02:31:24;;;;;;;18.20;13.27;;;;;;;1.53;83.03;103209.84;5049447;28;20071;-62
2022/01/13 02:34:27;;;;;;;17.52;13.00;;;;;;;1.76;82.04;103209.63;5050477;28;20421;-62
2022/01/13 02:37:30;;;;;;;;;;;;;;;1.86;81.90;103201.28;5030006;28;20127;-62
2022/01/13 02:40:33;;;;;;;22.90;14.73;;;;;;;2.05;81.24;103198.34;5038665;28;20025;-62
2022/01/13 02:43:37;;;;;;;19.38;13.63;;;;;;;2.17;80.75;103202.97;5049015;28;20048;-63
2022/01/13 02:49:43;;;;;;;20.05;14.50;;;;;;;1.88;81.29;103204.75;5049793;28;20159;-62
2022/01/13 02:52:46;;;;;;;19.38;14.63;;;;;;;2.03;80.97;103200.00;5048955;28;20087;-63
2022/01/13 02:55:51;;;;;;;;;;;;;;;1.94;80.75;103206.63;5049534;28;20098;-62
2022/01/13 02:58:54;;;;;;;;;;;;;;;1.91;81.18;103203.97;5049257;28;20246;-63
2022/01/13 03:01:58;;;;;;;21.45;14.35;;;;;;;1.68;82.22;103200.78;5049130;28;19963;-63
2022/01/13 03:05:01;;;;;;;23.58;16.40;;;;;;;1.73;82.21;103199.22;5045955;28;20048;-62
2022/01/13 03:08:05;;;;;;;;;;;;;;;1.58;83.18;103192.78;5041560;28;20135;-62
2022/01/13 03:11:09;;;;;;;21.67;16.60;;;;;;;1.65;83.02;103192.97;5037632;28;20414;-62
2022/01/13 03:14:13;;;;;;;23.55;17.02;;;;;;;1.79;82.40;103196.81;5049809;28;20059;-62
2022/01/13 03:17:16;;;;;;;23.50;16.92;;;;;;;1.77;82.35;103201.91;5048909;28;20123;-63
2022/01/13 03:20:19;;;;;;;21.10;15.10;;;;;;;1.71;82.56;103211.19;5049015;28;20052;-63
2022/01/13 03:23:23;;;;;;;22.50;15.55;;;;;;;1.93;81.81;103210.94;5047909;28;20101;-62
2022/01/13 03:26:26;;;;;;;21.70;16.08;;;;;;;2.13;80.93;103201.13;5048151;28;20063;-62
2022/01/13 03:29:30;;;;;;;25.83;19.00;;;;;;;1.65;82.92;103211.03;5049712;28;20550;-62
2022/01/13 03:32:35;;;;;;;23.20;17.35;;;;;;;1.90;82.09;103213.44;5048322;28;20578;-62
2022/01/13 03:35:40;;;;;;;22.10;16.45;;;;;;;1.94;81.64;103215.25;5041399;28;20612;-62
2022/01/13 03:38:44;;;;;;;21.63;15.70;;;;;;;1.77;82.46;103208.78;5036432;28;20451;-62
2022/01/13 03:41:47;;;;;;;28.98;18.73;;;;;;;1.69;82.37;103206.00;5048696;28;20072;-62
2022/01/13 05:22:18;;;;;;;32.70;20.70;;;;;;;0.98;86.12;103187.63;5006889;28;20054;-73
2022/01/13 05:25:21;;;;;;;;;;;;;;;1.12;86.19;103196.66;5007472;28;20060;-73
2022/01/13 05:28:25;;;;;;;29.85;20.98;;;;;;;1.30;85.22;103198.00;5025439;28;19987;-73
2022/01/13 05:31:29;;;;;;;29.58;21.08;;;;;;;1.30;85.46;103208.31;5027600;28;20052;-73
2022/01/13 05:34:32;;;;;;;26.73;18.88;;;;;;;1.43;84.96;103200.09;5013333;28;20109;-72
2022/01/13 05:37:35;;;;;;;31.02;20.40;;;;;;;1.48;84.29;103200.25;5007354;28;20080;-73
2022/01/13 05:40:38;;;;;;;;;;;;;;;1.53;84.11;103202.13;4996469;28;20053;-72
2022/01/13 05:43:42;;;;;;;25.63;18.95;;;;;;;1.58;83.63;103191.94;5014148;28;19967;-72
2022/01/13 05:46:46;;;;;;;28.02;19.55;;;;;;;1.41;84.18;103206.06;5026920;28;20062;-72
2022/01/13 05:49:49;;;;;;;28.25;20.45;;;;;;;1.24;85.72;103208.13;5002784;28;20472;-72
2022/01/13 05:52:53;;;;;;;27.40;19.25;;;;;;;1.39;85.15;103208.56;5026080;28;20063;-72
2022/01/13 05:55:57;;;;;;;29.83;21.30;;;;;;;1.46;84.35;103197.59;5027025;28;20048;-72
2022/01/13 05:59:00;;;;;;;29.83;21.08;;;;;;;1.65;84.04;103188.66;5015336;28;20099;-72
2022/01/13 06:02:05;;;;;;;31.20;20.08;;;;;;;1.53;83.75;103186.66;4996132;28;20115;-72
2022/01/13 06:05:09;;;;;;;26.27;19.55;;;;;;;1.36;84.14;103178.41;5006793;28;20435;-72
2022/01/13 06:08:12;;;;;;;27.08;18.23;;;;;;;1.62;83.91;103176.56;5026548;28;20144;-72
2022/01/13 06:11:21;;;;;;;27.33;21.33;;;;;;;1.76;83.10;103182.13;5026189;28;20052;-72
2022/01/13 06:14:24;;;;;;;28.73;20.25;;;;;;;1.62;83.17;103184.28;5026888;28;20091;-72
2022/01/13 06:17:28;;;;;;;26.00;19.77;;;;;;;1.74;82.97;103175.16;5026520;28;20060;-73
2022/01/13 06:20:31;;;;;;;29.30;22.13;;;;;;;1.88;82.48;103176.38;5025683;28;20064;-72
2022/01/13 06:23:34;;;;;;;;;;;;;;;1.81;82.85;103177.06;5030278;28;20510;-72
2022/01/13 06:26:38;;;;;;;29.42;20.48;;;;;;;1.77;82.75;103176.09;5030849;28;19967;-72
2022/01/13 06:29:42;;;;;;;30.20;21.73;;;;;;;1.04;85.26;103180.06;5030019;28;20087;-72
2022/01/13 06:32:46;;;;;;;;;;;;;;;1.07;85.92;103177.59;5018019;28;20278;-73
2022/01/13 06:35:50;;;;;;;27.48;19.80;;;;;;;1.23;85.43;103181.47;5030286;28;19924;-73
2022/01/13 06:38:53;;;;;;;;;;;;;;;1.42;84.97;103175.16;5029116;28;20424;-72
2022/01/13 06:41:57;;;;;;;30.83;21.83;;;;;;;1.15;85.61;103181.28;5031335;28;19920;-72
2022/01/13 06:45:01;;;;;;;30.67;21.35;;;;;;;1.14;86.07;103187.25;5018202;28;20052;-72
2022/01/13 06:48:04;;;;;;;32.35;24.40;;;;;;;1.23;85.71;103196.09;5028725;28;20435;-72
2022/01/13 06:51:08;;;;;;;39.75;26.20;;;;;;;1.28;85.21;103199.69;5017610;28;20043;-73
2022/01/13 06:54:12;;;;;;;33.92;24.52;;;;;;;1.25;85.20;103203.03;5030057;28;20099;-73
2022/01/13 06:57:16;;;;;;;32.20;20.35;;;;;;;1.11;85.57;103212.03;5021583;28;20520;-73
2022/01/13 07:00:24;;;;;;;32.22;23.20;;;;;;;1.23;85.46;103217.56;5011048;28;20099;-72
2022/01/13 07:03:28;;;;;;;31.80;20.55;;;;;;;1.19;85.63;103214.88;5010465;28;20078;-73
2022/01/13 07:06:33;;;;;;;31.45;22.02;;;;;;;1.44;84.80;103222.50;5010564;28;20080;-73
2022/01/13 07:09:36;;;;;;;39.47;27.20;;;;;;;1.33;84.53;103213.56;5009435;28;20049;-73
2022/01/13 07:12:40;;;;;;;;;;;;;;;1.27;85.10;103209.09;5011544;28;20107;-73
2022/01/13 07:15:45;;;;;;;32.63;21.63;;;;;;;1.52;84.25;103215.81;5030210;28;20004;-73
2022/01/13 07:18:49;;;;;;;33.63;22.13;;;;;;;1.43;83.97;103220.72;5030325;28;20187;-73
2022/01/13 07:21:52;;;;;;;;;;;;;;;1.20;84.89;103222.63;5030987;28;20052;-73
2022/01/13 07:24:56;;;;;;;29.23;21.65;;;;;;;0.99;85.84;103216.81;5028661;28;20425;-72
2022/01/13 07:27:59;;;;;;;30.25;20.40;;;;;;;1.10;85.41;103221.47;5027970;28;20515;-73
2022/01/13 07:31:03;;;;;;;30.25;21.75;;;;;;;0.85;86.13;103224.13;5029168;28;20391;-72
2022/01/13 07:34:06;;;;;;;30.27;22.27;;;;;;;0.94;86.40;103229.56;5029555;28;20040;-72
2022/01/13 07:37:10;;;;;;;32.03;22.40;;;;;;;1.11;85.80;103225.81;5029979;28;20044;-73
2022/01/13 07:40:14;;;;;;;;;;;;;;;0.97;85.96;103224.53;5013385;28;20084;-73
2022/01/13 07:43:22;;;;;;;34.65;22.33;;;;;;;0.83;86.86;103226.69;5009500;28;19967;-73
2022/01/13 07:46:26;;;;;;;33.20;22.33;;;;;;;0.64;87.01;103230.38;5009514;28;20040;-73
2022/01/13 07:49:30;;;;;;;35.17;23.90;;;;;;;0.92;87.26;103231.22;5009363;28;20068;-73
2022/01/13 07:52:33;;;;;;;27.60;18.90;;;;;;;1.27;85.77;103234.00;5006289;28;20450;-73
2022/01/13 07:55:36;;;;;;;36.40;24.00;;;;;;;1.06;85.69;103241.97;5027847;28;20056;-73
2022/01/13 07:58:41;;;;;;;32.17;22.88;;;;;;;1.21;85.51;103245.00;5008570;28;20907;-73
2022/01/13 08:01:45;;;;;;;32.38;21.90;;;;;;;1.43;84.14;103241.34;5004914;28;20526;-72
2022/01/13 08:04:49;;;;;;;29.75;21.33;;;;;;;1.59;83.77;103242.66;5028198;28;20123;-73
2022/01/13 08:07:52;;;;;;;28.08;20.60;;;;;;;1.46;83.94;103249.16;5026432;28;20040;-72
2022/01/13 08:10:55;;;;;;;;;;;;;;;1.44;84.09;103248.28;5028291;28;20048;-73
2022/01/13 08:13:59;;;;;;;42.13;27.65;;;;;;;1.50;84.24;103258.75;5029334;28;19920;-72
2022/01/13 08:17:03;;;;;;;55.95;40.53;;;;;;;1.29;84.43;103263.28;5029263;28;20301;-72
2022/01/13 08:20:08;;;;;;;31.25;22.20;;;;;;;1.32;84.62;103259.09;5026056;28;20132;-72
2022/01/13 08:23:12;;;;;;;25.83;19.60;;;;;;;1.47;84.12;103258.69;5022204;28;20258;-72
2022/01/13 08:26:17;;;;;;;31.00;21.10;;;;;;;1.53;83.52;103258.84;5028417;28;20547;-72
2022/01/13 08:29:20;;;;;;;25.90;19.02;;;;;;;1.51;84.00;103259.63;5028196;28;20053;-72
2022/01/13 08:32:24;;;;;;;28.85;22.08;;;;;;;1.58;83.58;103258.97;5018198;28;20044;-72
2022/01/13 08:35:27;;;;;;;32.05;22.70;;;;;;;1.71;83.05;103260.19;5008032;28;20064;-72
2022/01/13 08:38:31;;;;;;;62.03;46.88;;;;;;;1.68;82.96;103250.66;5007913;28;20049;-72
2022/01/13 08:41:35;;;;;;;153.30;108.38;;;;;;;1.53;83.33;103252.78;5008202;28;20077;-72
2022/01/13 08:44:39;;;;;;;35.90;26.63;;;;;;;1.27;84.38;103250.31;5008447;28;20408;-72
2022/01/13 08:47:44;;;;;;;33.53;22.65;;;;;;;1.35;84.45;103251.44;5007853;28;20068;-72
2022/01/13 08:50:48;;;;;;;34.58;23.92;;;;;;;1.55;83.87;103249.44;5027003;28;20075;-72
2022/01/13 08:53:52;;;;;;;32.90;22.85;;;;;;;1.48;83.32;103244.94;5028020;28;20080;-72
2022/01/13 08:56:58;;;;;;;;;;;;;;;1.58;83.79;103241.78;5028893;28;20183;-72
2022/01/13 09:00:05;;;;;;;30.02;21.15;;;;;;;1.47;84.09;103248.38;5012074;28;19944;-72
2022/01/13 09:03:08;;;;;;;32.60;23.10;;;;;;;1.32;84.21;103250.47;5010916;28;20705;-72
2022/01/13 09:06:12;;;;;;;;;;;;;;;1.16;85.24;103252.59;5027562;28;20130;-72
2022/01/13 09:09:16;;;;;;;35.75;22.70;;;;;;;0.89;86.00;103251.72;5027170;28;19935;-72
2022/01/13 09:12:19;;;;;;;35.58;22.35;;;;;;;1.02;85.27;103243.59;5022212;28;20039;-72
2022/01/13 09:15:45;;;;;;;36.13;23.92;;;;;;;0.97;85.59;103249.41;5016228;28;20553;-72
2022/01/13 09:22:00;;;;;;;35.00;22.75;;;;;;;0.88;86.28;103255.16;5015721;28;20385;-72
2022/01/13 09:25:06;;;;;;;33.13;21.40;;;;;;;1.31;84.71;103266.78;5027030;28;20039;-72
2022/01/13 09:28:10;;;;;;;29.83;19.83;;;;;;;1.61;83.08;103259.94;5027407;28;20064;-72
2022/01/13 09:31:13;;;;;;;34.75;22.00;;;;;;;1.71;82.90;103267.94;5015158;28;20041;-72
2022/01/13 09:34:16;;;;;;;28.85;19.40;;;;;;;1.82;82.23;103256.22;5007932;28;20048;-72
2022/01/13 09:37:20;;;;;;;34.05;20.67;;;;;;;1.45;83.30;103259.44;5008318;28;20052;-72
2022/01/13 09:40:23;;;;;;;32.88;20.13;;;;;;;1.55;83.02;103270.06;4984806;28;20040;-72
2022/01/13 09:43:27;;;;;;;33.45;20.27;;;;;;;1.62;82.80;103276.28;5006635;28;20060;-72
2022/01/13 09:46:35;;;;;;;32.67;20.10;;;;;;;1.66;83.18;103279.81;5007406;28;20417;-72
2022/01/13 09:49:38;;;;;;;31.60;20.90;;;;;;;1.88;82.28;103271.84;5006623;28;20081;-72
2022/01/13 09:52:44;;;;;;;;;;;;;;;2.00;81.56;103276.47;5024289;28;20100;-72
2022/01/13 09:55:48;;;;;;;30.05;18.75;;;;;;;2.09;81.64;103282.75;5015350;28;19940;-72
2022/01/13 09:58:51;;;;;;;33.25;21.77;;;;;;;1.83;81.12;103283.75;5018402;28;20073;-72
2022/01/13 10:01:55;;;;;;;36.17;20.15;;;;;;;1.78;81.58;103277.59;5014718;28;20100;-72
2022/01/13 10:04:58;;;;;;;;;;;;;;;1.86;81.02;103283.84;5031234;28;20091;-72
2022/01/13 10:08:02;;;;;;;33.22;20.92;;;;;;;1.59;82.04;103274.47;5030655;28;19960;-72
2022/01/13 10:11:24;;;;;;;32.35;20.45;;;;;;;1.39;83.25;103281.63;5018708;28;20129;-73
2022/01/13 10:17:52;;;;;;;28.90;20.05;;;;;;;1.88;82.50;103281.28;5010262;28;20056;-72
2022/01/13 10:21:09;;;;;;;34.33;20.60;;;;;;;1.92;81.79;103284.03;5013791;28;20072;-72
2022/01/13 10:24:13;;;;;;;32.40;19.33;;;;;;;2.05;81.51;103280.94;4987530;28;20077;-72
2022/01/13 10:27:22;;;;;;;30.13;20.85;;;;;;;2.22;81.23;103283.09;5009426;28;20068;-72
2022/01/13 10:31:15;;;;;;;32.50;21.55;;;;;;;2.23;80.56;103288.28;5023557;28;20072;-72
2022/01/13 10:34:26;;;;;;;31.83;20.67;;;;;;;2.31;79.63;103280.75;4998058;28;20076;-72
2022/01/13 10:37:35;;;;;;;31.75;19.42;;;;;;;2.38;80.10;103280.06;5030028;28;20586;-72
2022/01/13 10:40:41;;;;;;;30.83;21.77;;;;;;;2.49;80.03;103267.44;5030038;28;20416;-72
2022/01/13 10:43:45;;;;;;;36.13;24.08;;;;;;;1.94;81.14;103271.16;5030591;28;20072;-72
2022/01/13 10:47:02;;;;;;;32.40;20.55;;;;;;;1.76;82.52;103266.38;5029152;28;20048;-72
2022/01/13 10:50:13;;;;;;;38.20;22.55;;;;;;;1.93;81.64;103248.78;5029710;28;20262;-72
2022/01/13 10:53:29;;;;;;;31.63;21.40;;;;;;;1.93;81.38;103254.78;5030872;28;20453;-72
2022/01/13 10:56:32;;;;;;;32.20;20.40;;;;;;;1.95;81.25;103247.97;5010894;28;20404;-72
2022/01/13 10:59:36;;;;;;;31.23;20.35;;;;;;;1.75;81.90;103254.28;5028983;28;20091;-72
2022/01/13 11:02:40;;;;;;;31.15;19.75;;;;;;;1.89;81.99;103247.81;5030241;28;20076;-72
2022/01/13 11:05:49;;;;;;;33.92;21.38;;;;;;;2.13;81.26;103236.38;5029672;28;20189;-72
2022/01/13 11:08:52;;;;;;;32.17;21.92;;;;;;;2.14;81.42;103232.97;5008091;28;20048;-72
2022/01/13 11:11:59;;;;;;;;;;;;;;;1.96;81.42;103229.06;5010692;28;20455;-72
2022/01/13 11:15:06;;;;;;;33.30;20.70;;;;;;;2.08;81.30;103215.63;5008942;28;19919;-73
2022/01/13 11:18:10;;;;;;;28.95;18.75;;;;;;;2.12;80.28;103214.00;5008719;28;20092;-72
2022/01/13 11:21:14;;;;;;;32.67;20.65;;;;;;;2.04;81.32;103218.94;4997131;28;20156;-72
2022/01/13 11:24:18;;;;;;;33.42;22.80;;;;;;;2.10;81.80;103212.22;4998501;28;20049;-72
2022/01/13 11:27:22;;;;;;;32.65;21.38;;;;;;;1.75;82.53;103205.28;5010572;28;20065;-72
2022/01/13 11:30:28;;;;;;;42.33;26.05;;;;;;;1.80;82.61;103207.16;5009760;28;20401;-72
2022/01/13 11:33:31;;;;;;;33.80;21.90;;;;;;;1.47;83.55;103213.94;5009838;28;20045;-72
2022/01/13 11:36:35;;;;;;;;;;;;;;;1.60;83.26;103203.16;4986442;28;20176;-73
2022/01/13 11:39:43;;;;;;;32.83;21.52;;;;;;;1.91;82.42;103206.56;4997598;28;19920;-72
2022/01/13 11:42:47;;;;;;;35.50;22.88;;;;;;;1.76;82.23;103199.31;5008996;28;20045;-72
2022/01/13 11:45:51;;;;;;;30.13;17.67;;;;;;;2.04;81.63;103201.78;5008921;28;20084;-72
2022/01/13 11:48:59;;;;;;;28.55;18.20;;;;;;;2.16;81.52;103203.78;5009880;28;20049;-72
2022/01/13 11:52:13;;;;;;;27.63;18.58;;;;;;;2.41;80.30;103197.53;5027081;28;20534;-72
2022/01/13 11:55:25;;;;;;;33.08;20.75;;;;;;;2.23;80.46;103199.63;5012067;28;20543;-72
2022/01/13 11:58:32;;;;;;;34.30;20.58;;;;;;;2.25;80.17;103193.69;4997670;28;20404;-72
2022/01/13 12:01:36;;;;;;;26.88;18.45;;;;;;;2.20;80.32;103196.97;4997681;28;20045;-72
2022/01/13 12:04:58;;;;;;;35.67;22.67;;;;;;;2.27;80.92;103188.56;4997722;28;20254;-72
2022/01/13 12:08:02;;;;;;;29.92;20.10;;;;;;;2.46;79.74;103188.19;5028795;28;20087;-72
2022/01/13 12:11:07;;;;;;;27.77;18.75;;;;;;;2.44;79.51;103192.44;5028499;28;20411;-72
2022/01/13 12:14:42;;;;;;;29.90;17.80;;;;;;;2.60;79.07;103182.47;5028223;28;20048;-72
2022/01/13 12:17:56;;;;;;;24.77;17.42;;;;;;;2.55;79.01;103180.66;5028900;28;20047;-72
2022/01/13 12:21:20;;;;;;;26.58;17.10;;;;;;;2.67;78.64;103174.00;5025915;28;20049;-72
2022/01/13 12:24:51;;;;;;;31.48;21.08;;;;;;;2.59;78.83;103165.25;5013599;28;20049;-72
2022/01/13 12:27:55;;;;;;;26.88;18.50;;;;;;;2.65;78.60;103157.59;5008206;28;20125;-72
2022/01/13 12:31:18;;;;;;;;;;;;;;;2.85;78.76;103164.09;5009343;28;20072;-72
2022/01/13 12:34:43;;;;;;;25.13;16.73;;;;;;;3.06;78.29;103170.56;5014379;28;19943;-72
2022/01/13 12:38:00;;;;;;;25.08;16.15;;;;;;;3.23;77.55;103161.47;5029433;28;20096;-72
2022/01/13 12:41:14;;;;;;;25.90;17.10;;;;;;;3.31;77.19;103157.31;5027277;28;20445;-72
2022/01/13 12:45:27;;;;;;;23.23;16.08;;;;;;;3.56;76.60;103150.03;5027902;28;20099;-72
2022/01/13 12:47:45;;;;;;;25.60;16.27;;;;;;;3.61;76.37;103138.06;5028014;28;20515;-72
2022/01/13 12:50:49;;;;;;;26.88;16.95;;;;;;;3.50;76.41;103136.13;5020474;28;20194;-73
2022/01/13 12:53:54;;;;;;;22.58;17.80;;;;;;;3.65;75.99;103134.69;5000769;28;20044;-73
2022/01/13 12:57:07;;;;;;;22.98;15.30;;;;;;;3.68;75.51;103124.38;5026715;28;20047;-73
2022/01/13 13:00:11;;;;;;;22.50;16.25;;;;;;;3.28;76.92;103128.78;5027797;28;20084;-73
2022/01/13 13:03:15;;;;;;;21.90;15.40;;;;;;;3.48;75.89;103118.84;5014874;28;20439;-73
2022/01/13 13:06:18;;;;;;;22.10;15.13;;;;;;;3.72;75.86;103115.81;5027439;28;20451;-73
2022/01/13 13:09:23;;;;;;;;;;;;;;;3.29;77.04;103120.22;5028993;28;20045;-73
2022/01/13 13:12:27;;;;;;;25.00;16.05;;;;;;;3.57;76.36;103121.59;5027881;28;20315;-73
2022/01/13 13:18:35;;;;;;;27.75;16.40;;;;;;;3.06;78.05;103124.03;5014541;28;20416;-73
2022/01/13 13:21:39;;;;;;;23.85;16.05;;;;;;;3.35;77.66;103117.75;5007044;28;20188;-73
2022/01/13 13:24:44;;;;;;;21.92;16.13;;;;;;;3.45;77.21;103121.38;5007563;28;20053;-73
2022/01/13 13:27:47;;;;;;;19.42;14.82;;;;;;;3.30;77.75;103116.78;4998401;28;20457;-73
2022/01/13 13:31:03;;;;;;;24.00;15.25;;;;;;;3.36;76.84;103119.47;5014918;28;20095;-73
2022/01/13 13:34:09;;;;;;;21.98;15.27;;;;;;;3.06;78.58;103116.28;5005341;28;20452;-73
2022/01/13 13:37:12;;;;;;;20.10;14.93;;;;;;;3.16;78.33;103113.94;5031838;28;20044;-73
2022/01/13 13:40:23;;;;;;;20.38;14.38;;;;;;;3.25;78.38;103118.38;5020028;28;20095;-73
2022/01/13 13:43:32;;;;;;;19.63;14.35;;;;;;;3.12;78.11;103124.16;5019522;28;20053;-73
2022/01/13 13:46:37;;;;;;;22.58;14.90;;;;;;;3.14;77.93;103117.31;5017698;28;20041;-73
2022/01/13 13:49:46;;;;;;;20.10;13.50;;;;;;;3.21;77.74;103120.03;5019969;28;20099;-73
2022/01/13 13:53:06;;;;;;;20.83;14.63;;;;;;;3.12;78.45;103125.03;5031651;28;20056;-73
2022/01/13 13:56:10;;;;;;;19.77;14.13;;;;;;;3.28;77.69;103117.59;5018655;28;20052;-73
2022/01/13 13:59:22;;;;;;;21.52;13.30;;;;;;;3.28;78.24;103118.44;5031106;28;20466;-73
2022/01/13 14:02:33;;;;;;;21.53;13.73;;;;;;;3.23;79.13;103114.91;5011401;28;20104;-74
2022/01/13 14:05:39;;;;;;;27.77;14.93;;;;;;;3.23;79.38;103114.91;5011441;28;20045;-73
2022/01/13 14:08:54;;;;;;;19.77;12.60;;;;;;;3.15;79.93;103114.75;5020826;28;20091;-73
2022/01/13 14:11:57;;;;;;;22.05;13.50;;;;;;;3.18;79.47;103116.53;5031150;28;20060;-73
2022/01/13 14:15:14;;;;;;;18.38;12.93;;;;;;;3.23;78.87;103112.34;5029687;28;20570;-73
2022/01/13 14:18:20;;;;;;;19.65;13.43;;;;;;;3.21;78.99;103107.13;5030816;28;20057;-73
2022/01/13 14:21:23;;;;;;;19.17;13.77;;;;;;;3.09;79.65;103106.88;5010104;28;20049;-73
2022/01/13 14:24:34;;;;;;;19.25;12.75;;;;;;;3.08;80.24;103099.97;4991194;28;20064;-73
2022/01/13 14:27:57;;;;;;;18.67;11.30;;;;;;;3.11;80.60;103091.41;4979592;28;20143;-73
2022/01/13 14:31:02;;;;;;;19.00;13.93;;;;;;;3.01;81.18;103095.53;4979393;28;20146;-73
2022/01/13 14:34:05;;;;;;;22.63;13.93;;;;;;;3.15;81.42;103106.13;4990566;28;20046;-73
2022/01/13 14:37:09;;;;;;;18.35;12.60;;;;;;;3.01;80.81;103105.84;4990993;28;20520;-74
2022/01/13 14:40:44;;;;;;;18.85;13.30;;;;;;;2.95;80.68;103088.50;4991647;28;20460;-73
2022/01/13 14:43:56;;;;;;;19.33;13.00;;;;;;;2.84;80.67;103095.19;5004192;28;20091;-73
2022/01/13 14:47:06;;;;;;;22.80;13.23;;;;;;;2.78;81.57;103095.06;4987762;28;20502;-73
2022/01/13 14:50:10;;;;;;;18.98;11.73;;;;;;;2.78;81.94;103095.06;4987118;28;20053;-73
2022/01/13 14:53:13;;;;;;;16.80;13.18;;;;;;;2.79;81.94;103094.19;5011195;28;20401;-73
2022/01/13 14:56:18;;;;;;;;;;;;;;;2.82;81.45;103091.69;5010288;28;20041;-73
2022/01/13 14:59:22;;;;;;;27.58;20.10;;;;;;;2.80;81.15;103088.19;5010269;28;20050;-73
2022/01/13 15:02:25;;;;;;;25.52;16.63;;;;;;;2.84;81.36;103095.19;5009132;28;20507;-73
2022/01/13 15:05:28;;;;;;;;;;;;;;;2.83;81.84;103082.22;5010249;28;20144;-73
2022/01/13 15:08:33;;;;;;;23.65;14.20;;;;;;;2.85;81.65;103080.53;5009593;28;19964;-73
2022/01/13 15:11:36;;;;;;;21.08;12.98;;;;;;;2.77;81.80;103072.63;5022014;28;20511;-73
2022/01/13 15:14:40;;;;;;;;;;;;;;;2.71;82.27;103070.81;4998853;28;20072;-73
2022/01/13 15:17:43;;;;;;;19.27;12.70;;;;;;;2.75;81.79;103070.00;5010078;28;20529;-72
2022/01/13 15:26:30;;;;;;;17.88;12.30;;;;;;;2.63;82.68;103074.06;5005966;28;20519;-73
2022/01/13 15:29:34;;;;;;;16.92;11.35;;;;;;;2.59;82.51;103072.25;4990086;28;20481;-74
2022/01/13 15:32:37;;;;;;;;;;;;;;;2.52;82.68;103061.78;4993663;28;20508;-73
2022/01/13 15:35:45;;;;;;;19.20;12.65;;;;;;;2.47;82.41;103063.38;4985359;28;20032;-73
2022/01/13 15:38:49;;;;;;;18.25;12.65;;;;;;;2.44;82.85;103052.97;4997464;28;20053;-74
2022/01/13 15:41:58;;;;;;;18.83;13.13;;;;;;;2.41;82.69;103063.25;5009308;28;20057;-73
2022/01/13 15:45:06;;;;;;;19.58;12.52;;;;;;;2.37;82.63;103056.28;5010282;28;20049;-73
2022/01/13 15:48:12;;;;;;;17.25;11.88;;;;;;;2.26;82.74;103060.31;4994200;28;20396;-73
2022/01/13 15:51:15;;;;;;;20.00;13.02;;;;;;;2.26;82.81;103060.31;4997805;28;20076;-72
2022/01/13 15:54:19;;;;;;;18.95;12.25;;;;;;;2.23;82.75;103058.53;5008561;28;20459;-73
2022/01/13 15:57:22;;;;;;;;;;;;;;;2.10;82.79;103065.13;5006862;28;20037;-73
2022/01/13 16:04:45;;;;;;;20.70;12.05;;;;;;;1.92;83.15;103054.38;5007388;28;20333;-73
2022/01/13 16:07:50;;;;;;;16.67;11.27;;;;;;;1.90;83.45;103058.63;5007246;28;20049;-74
2022/01/13 16:10:54;;;;;;;18.40;12.38;;;;;;;1.84;83.19;103054.19;4989425;28;20468;-73
2022/01/13 16:13:58;;;;;;;21.75;12.85;;;;;;;1.84;83.35;103068.78;4995180;28;20048;-73
2022/01/13 16:17:02;;;;;;;19.50;11.70;;;;;;;1.80;83.32;103056.66;4989671;28;20126;-73
2022/01/13 16:20:07;;;;;;;17.73;12.55;;;;;;;1.78;83.23;103069.50;4989783;28;20065;-73
2022/01/13 16:23:13;;;;;;;17.63;11.77;;;;;;;1.66;82.91;103069.22;4999577;28;20049;-73
2022/01/13 16:26:18;;;;;;;19.40;13.40;;;;;;;1.67;82.87;103075.25;5000020;28;20049;-72
2022/01/13 16:29:57;;;;;;;21.65;13.18;;;;;;;1.65;83.10;103069.16;5008987;28;20461;-74
2022/01/13 16:33:32;;;;;;;18.77;13.32;;;;;;;1.63;83.18;103069.16;4999792;28;20495;-74
2022/01/13 16:37:24;;;;;;;18.88;13.02;;;;;;;1.58;83.21;103075.88;5035782;22;20148;-75